createdAt,value
2019-02-07T00:00:56.064Z,97185.20
2019-02-07T00:03:21.995Z,97179.02
2019-02-07T00:05:47.928Z,97174.52
2019-02-07T00:08:13.851Z,97168.27
2019-02-07T00:10:39.698Z,97163.11
2019-02-07T00:13:05.534Z,97161.97
2019-02-07T00:18:04.029Z,97149.55
2019-02-07T00:20:29.851Z,97147.44
2019-02-07T00:22:55.716Z,97143.59
2019-02-07T00:25:21.551Z,97136.29
2019-02-07T00:27:47.679Z,97134.31
2019-02-07T00:30:55.172Z,97130.73
2019-02-07T00:33:21.094Z,97133.58
2019-02-07T00:35:46.909Z,97129.11
2019-02-07T00:38:12.746Z,97125.87
2019-02-07T00:40:38.558Z,97118.72
2019-02-07T00:43:04.500Z,97118.77
2019-02-07T00:45:30.348Z,97118.50
2019-02-07T00:47:56.174Z,97126.31
2019-02-07T00:50:21.995Z,97132.40
2019-02-07T00:52:47.826Z,97133.41
2019-02-07T00:55:55.299Z,97131.28
2019-02-07T00:58:21.245Z,97118.69
2019-02-07T01:00:47.288Z,97119.02
2019-02-07T01:03:13.185Z,97121.27
2019-02-07T01:05:40.902Z,97121.66
2019-02-07T01:08:06.727Z,97114.63
2019-02-07T01:10:32.653Z,97112.75
2019-02-07T01:12:58.501Z,97105.52
2019-02-07T01:16:05.986Z,97101.95
2019-02-07T01:18:31.820Z,97103.09
2019-02-07T01:20:57.638Z,97095.30
2019-02-07T01:23:23.475Z,97096.95
2019-02-07T01:25:49.299Z,97087.23
2019-02-07T01:28:15.262Z,97078.49
2019-02-07T01:30:41.200Z,97080.42
2019-02-07T01:33:07.030Z,97079.05
2019-02-07T01:35:34.879Z,97073.84
2019-02-07T01:38:00.719Z,97068.98
2019-02-07T01:40:26.565Z,97066.37
2019-02-07T01:42:52.412Z,97060.10
2019-02-07T01:45:59.931Z,97046.44
2019-02-07T01:48:25.853Z,97035.90
2019-02-07T01:50:51.773Z,97040.55
2019-02-07T01:53:17.589Z,97032.98
2019-02-07T01:55:43.446Z,97034.40
2019-02-07T01:58:09.273Z,97030.74
2019-02-07T02:00:35.529Z,97025.25
2019-02-07T02:03:01.347Z,97013.42
2019-02-07T02:05:29.071Z,97013.08
2019-02-07T02:07:55.113Z,97006.50
2019-02-07T02:11:02.610Z,97002.06
2019-02-07T02:13:28.835Z,96995.69
2019-02-07T02:15:54.649Z,96989.38
2019-02-07T02:18:27.712Z,96981.17
2019-02-07T02:20:53.753Z,96981.20
2019-02-07T02:23:19.678Z,96969.94
2019-02-07T02:25:45.500Z,96969.27
2019-02-07T02:28:11.353Z,96966.67
2019-02-07T02:30:37.188Z,96957.80
2019-02-07T02:33:03.306Z,96946.50
2019-02-07T02:35:29.150Z,96943.42
2019-02-07T02:37:54.983Z,96946.53
2019-02-07T02:40:20.916Z,96952.46
2019-02-07T02:43:28.406Z,96949.58
2019-02-07T02:45:54.246Z,96932.48
2019-02-07T02:49:01.724Z,96943.42
2019-02-07T02:51:27.563Z,96939.52
2019-02-07T02:56:26.887Z,96929.30
2019-02-07T02:58:52.713Z,96937.00
2019-02-07T03:01:26.319Z,96925.81
2019-02-07T03:09:34.610Z,96925.53
2019-02-07T03:12:21.016Z,96925.55
2019-02-07T03:17:54.186Z,96928.05
2019-02-07T03:20:39.907Z,96921.87
2019-02-07T03:23:25.599Z,96918.17
2019-02-07T03:26:11.759Z,96915.75
2019-02-07T03:31:44.764Z,96913.89
2019-02-07T03:34:30.470Z,96893.43
2019-02-07T03:37:16.174Z,96893.92
2019-02-07T03:40:01.869Z,96889.93
2019-02-07T03:42:47.572Z,96889.26
2019-02-07T03:45:33.365Z,96891.80
2019-02-07T03:48:19.085Z,96881.61
2019-02-07T03:51:04.872Z,96874.06
2019-02-07T03:53:50.590Z,96866.30
2019-02-07T03:56:36.280Z,96869.45
2019-02-07T03:59:22.004Z,96872.98
2019-02-07T04:02:07.722Z,96857.40
2019-02-07T04:04:53.422Z,96865.59
2019-02-07T04:07:39.127Z,96861.79
2019-02-07T04:10:46.588Z,96865.59
2019-02-07T04:13:32.566Z,96862.52
2019-02-07T04:16:18.254Z,96866.40
2019-02-07T04:19:04.077Z,96855.39
2019-02-07T04:27:10.779Z,96850.79
2019-02-07T04:29:56.494Z,96841.23
2019-02-07T04:32:42.513Z,96844.86
2019-02-07T04:38:01.952Z,96827.55
2019-02-07T04:40:47.851Z,96819.73
2019-02-07T04:43:33.539Z,96817.63
2019-02-07T04:48:52.762Z,96811.34
2019-02-07T04:51:38.488Z,96817.20
2019-02-07T04:54:24.510Z,96821.38
2019-02-07T04:57:10.224Z,96817.45
2019-02-07T04:59:55.973Z,96827.19
2019-02-07T05:02:41.725Z,96825.47
2019-02-07T05:05:27.557Z,96826.72
2019-02-07T05:08:13.362Z,96823.53
2019-02-07T05:10:59.088Z,96815.56
2019-02-07T05:13:44.814Z,96810.27
2019-02-07T05:16:39.176Z,96805.72
2019-02-07T05:19:18.169Z,96814.13
2019-02-07T05:22:04.269Z,96802.11
2019-02-07T05:24:49.972Z,96805.20
2019-02-07T05:27:35.687Z,96794.72
2019-02-07T05:30:21.405Z,96801.12
2019-02-07T05:33:07.094Z,96805.53
2019-02-07T05:35:53.096Z,96802.75
2019-02-07T05:41:12.186Z,96747.47
2019-02-07T05:46:35.727Z,96796.17
2019-02-07T05:49:21.439Z,96785.59
2019-02-07T05:54:54.499Z,96778.41
2019-02-07T05:57:40.603Z,96773.54
2019-02-07T06:00:48.094Z,96775.65
2019-02-07T06:03:33.859Z,96775.44
2019-02-07T06:06:19.561Z,96769.43
2019-02-07T06:09:05.273Z,96769.08
2019-02-07T06:11:50.978Z,96766.15
2019-02-07T06:14:36.719Z,96754.34
2019-02-07T06:17:22.419Z,96754.10
2019-02-07T06:22:45.913Z,96748.38
2019-02-07T06:25:31.710Z,96752.81
2019-02-07T06:28:17.431Z,96759.17
2019-02-07T06:33:50.691Z,96744.95
2019-02-07T06:36:36.419Z,96738.91
2019-02-07T06:39:43.904Z,96730.25
2019-02-07T06:47:51.201Z,96742.12
2019-02-07T06:50:36.956Z,96725.75
2019-02-07T06:53:22.980Z,96717.00
2019-02-07T06:56:08.700Z,96713.10
2019-02-07T06:58:55.228Z,96730.47
2019-02-07T07:04:28.445Z,96727.61
2019-02-07T07:10:01.663Z,96728.61
2019-02-07T07:15:34.751Z,96748.55
2019-02-07T07:21:07.926Z,96760.41
2019-02-07T07:23:53.745Z,96757.91
2019-02-07T07:26:39.604Z,96759.91
2019-02-07T07:29:25.660Z,96767.50
2019-02-07T07:32:11.476Z,96762.83
2019-02-07T07:34:57.185Z,96761.56
2019-02-07T07:37:42.927Z,96775.50
2019-02-07T07:40:50.432Z,96768.06
2019-02-07T07:43:36.238Z,96776.30
2019-02-07T07:49:10.576Z,96776.38
2019-02-07T07:51:56.344Z,96790.55
2019-02-07T07:54:42.459Z,96795.20
2019-02-07T07:57:26.888Z,96800.22
2019-02-07T08:00:11.459Z,96795.05
2019-02-07T08:02:45.025Z,96787.75
2019-02-07T08:05:29.729Z,96785.80
2019-02-07T08:08:00.264Z,96783.44
2019-02-07T08:10:44.495Z,96794.31
2019-02-07T08:13:21.118Z,96794.09
2019-02-07T08:15:57.524Z,96796.61
2019-02-07T08:18:28.009Z,96803.41
2019-02-07T08:21:12.199Z,96799.28
2019-02-07T08:23:44.258Z,96798.06
2019-02-07T08:26:18.062Z,96785.67
2019-02-07T08:29:02.616Z,96787.53
2019-02-07T08:31:33.222Z,96778.38
2019-02-07T08:34:06.730Z,96785.14
2019-02-07T08:36:34.493Z,96773.25
2019-02-07T08:39:11.411Z,96763.84
2019-02-07T08:41:55.677Z,96758.11
2019-02-07T08:44:39.828Z,96760.84
2019-02-07T08:47:11.178Z,96751.31
2019-02-07T08:49:45.039Z,96735.86
2019-02-07T08:52:21.544Z,96746.18
2019-02-07T08:55:05.856Z,96746.05
2019-02-07T08:57:48.511Z,96742.08
2019-02-07T09:00:34.465Z,96734.34
2019-02-07T09:03:20.491Z,96731.22
2019-02-07T09:05:48.222Z,96735.28
2019-02-07T09:08:31.144Z,96727.88
2019-02-07T09:11:07.775Z,96740.31
2019-02-07T09:13:53.830Z,96743.83
2019-02-07T09:16:39.822Z,96735.09
2019-02-07T09:22:13.331Z,96754.73
2019-02-07T09:30:20.390Z,96764.30
2019-02-07T09:33:06.095Z,96759.64
2019-02-07T09:35:52.024Z,96752.21
2019-02-07T09:38:37.767Z,96751.56
2019-02-07T09:44:11.229Z,96743.95
2019-02-07T09:49:44.586Z,96741.66
2019-02-07T09:52:30.288Z,96731.09
2019-02-07T10:00:48.431Z,96736.53
2019-02-07T10:03:34.186Z,96744.75
2019-02-07T10:09:07.379Z,96738.06
2019-02-07T10:11:53.058Z,96726.81
2019-02-07T10:14:39.579Z,96716.33
2019-02-07T10:17:25.291Z,96726.18
2019-02-07T10:20:11.009Z,96731.45
2019-02-07T10:22:56.733Z,96722.34
2019-02-07T10:25:42.469Z,96725.00
2019-02-07T10:28:28.641Z,96720.34
2019-02-07T10:33:48.193Z,96716.91
2019-02-07T10:36:34.109Z,96720.39
2019-02-07T10:39:19.819Z,96718.36
2019-02-07T10:42:05.561Z,96714.36
2019-02-07T10:44:51.288Z,96703.58
2019-02-07T10:47:37.147Z,96693.75
2019-02-07T10:50:44.683Z,96702.63
2019-02-07T10:56:17.774Z,96696.88
2019-02-07T10:58:45.852Z,96694.60
2019-02-07T11:01:29.994Z,96699.19
2019-02-07T11:04:15.897Z,96687.66
2019-02-07T11:07:01.625Z,96682.13
2019-02-07T11:09:47.650Z,96685.44
2019-02-07T11:12:33.378Z,96690.52
2019-02-07T11:15:19.093Z,96691.03
2019-02-07T11:18:04.957Z,96690.66
2019-02-07T11:20:50.645Z,96681.35
2019-02-07T11:23:36.723Z,96670.52
2019-02-07T11:26:44.196Z,96667.02
2019-02-07T11:32:03.887Z,96674.41
2019-02-07T11:34:49.751Z,96669.47
2019-02-07T11:37:35.479Z,96676.22
2019-02-07T11:40:21.361Z,96664.67
2019-02-07T11:43:07.142Z,96655.16
2019-02-07T11:45:52.881Z,96646.92
2019-02-07T11:49:06.930Z,96648.80
2019-02-07T11:51:48.037Z,96644.70
2019-02-07T11:54:33.781Z,96641.34
2019-02-07T12:07:55.074Z,96632.59
2019-02-07T12:10:40.802Z,96632.59
2019-02-07T12:13:26.696Z,96630.01
2019-02-07T12:19:00.176Z,96616.39
2019-02-07T12:24:33.306Z,96604.04
2019-02-07T12:27:19.017Z,96599.42
2019-02-07T12:32:38.689Z,96602.88
2019-02-07T12:35:46.212Z,96602.72
2019-02-07T12:38:31.919Z,96594.22
2019-02-07T12:43:51.135Z,96595.78
2019-02-07T12:46:36.881Z,96600.08
2019-02-07T12:49:29.224Z,96607.33
2019-02-07T12:52:32.244Z,96613.33
2019-02-07T12:58:05.677Z,96595.50
2019-02-07T13:01:13.244Z,96600.69
2019-02-07T13:06:46.392Z,96600.14
2019-02-07T13:09:53.901Z,96608.16
2019-02-07T13:12:39.754Z,96600.35
2019-02-07T13:15:47.250Z,96603.24
2019-02-07T13:18:33.161Z,96603.97
2019-02-07T13:21:18.946Z,96598.45
2019-02-07T13:24:04.663Z,96587.05
2019-02-07T13:29:37.883Z,96580.27
2019-02-07T13:32:45.407Z,96588.58
2019-02-07T13:35:31.383Z,96586.08
2019-02-07T13:46:05.635Z,96612.09
2019-02-07T13:48:51.446Z,96620.39
2019-02-07T13:59:39.660Z,96603.00
2019-02-07T14:02:25.451Z,96609.57
2019-02-07T14:05:11.719Z,96609.75
2019-02-07T14:07:57.443Z,96615.61
2019-02-07T14:10:43.162Z,96616.58
2019-02-07T14:13:29.015Z,96611.91
2019-02-07T14:18:52.060Z,96609.33
2019-02-07T14:21:37.883Z,96614.56
2019-02-07T14:29:34.799Z,96611.64
2019-02-07T14:32:20.689Z,96619.53
2019-02-07T14:35:06.442Z,96610.98
2019-02-07T14:40:39.613Z,96612.48
2019-02-07T14:46:12.867Z,96612.34
2019-02-07T14:48:39.054Z,96613.30
2019-02-07T14:51:05.124Z,96601.70
2019-02-07T14:53:30.942Z,96599.21
2019-02-07T14:55:56.808Z,96602.55
2019-02-07T14:58:22.789Z,96616.42
2019-02-07T15:00:48.665Z,96608.81
2019-02-07T15:06:21.949Z,96606.23
2019-02-07T15:08:47.909Z,96600.08
2019-02-07T15:11:13.904Z,96596.61
2019-02-07T15:13:39.848Z,96594.05
2019-02-07T15:16:05.873Z,96579.80
2019-02-07T15:18:31.868Z,96584.88
2019-02-07T15:20:57.800Z,96592.16
2019-02-07T15:23:23.674Z,96589.57
2019-02-07T15:25:49.545Z,96593.48
2019-02-07T15:28:15.622Z,96593.63
2019-02-07T15:30:41.576Z,96581.94
2019-02-07T15:33:07.724Z,96584.47
2019-02-07T15:36:16.971Z,96580.31
2019-02-07T15:38:42.939Z,96588.72
2019-02-07T15:41:08.979Z,96584.85
2019-02-07T15:43:34.987Z,96583.69
2019-02-07T15:46:01.149Z,96577.13
2019-02-07T15:48:27.007Z,96578.99
2019-02-07T15:50:52.856Z,96586.53
2019-02-07T15:53:18.785Z,96579.13
2019-02-07T15:55:44.696Z,96577.89
2019-02-07T15:58:10.630Z,96575.65
2019-02-07T16:00:56.336Z,96578.00
2019-02-07T16:03:42.165Z,96577.33
2019-02-07T16:06:08.175Z,96574.57
2019-02-07T16:08:34.013Z,96565.03
2019-02-07T16:10:59.974Z,96558.81
2019-02-07T16:13:25.798Z,96559.34
2019-02-07T16:16:33.392Z,96562.96
2019-02-07T16:18:59.236Z,96569.28
2019-02-07T16:21:25.083Z,96567.53
2019-02-07T16:23:52.817Z,96571.59
2019-02-07T16:26:18.664Z,96575.14
2019-02-07T16:28:44.617Z,96580.15
2019-02-07T16:34:45.971Z,96583.67
2019-02-07T16:37:11.810Z,96594.11
2019-02-07T16:39:37.710Z,96599.39
2019-02-07T16:44:37.975Z,96608.01
2019-02-07T16:47:04.263Z,96607.84
2019-02-07T16:49:30.297Z,96613.11
2019-02-07T16:51:56.558Z,96613.27
2019-02-07T16:54:22.755Z,96611.47
2019-02-07T16:56:48.803Z,96614.67
2019-02-07T16:59:14.906Z,96615.11
2019-02-07T17:01:41.156Z,96614.67
2019-02-07T17:04:07.360Z,96612.41
2019-02-07T17:06:33.396Z,96617.80
2019-02-07T17:08:59.451Z,96616.22
2019-02-07T17:11:25.450Z,96626.22
2019-02-07T17:13:51.811Z,96615.23
2019-02-07T17:16:18.067Z,96611.33
2019-02-07T17:18:44.258Z,96619.88
2019-02-07T17:21:12.563Z,96617.97
2019-02-07T17:23:38.617Z,96615.35
2019-02-07T17:26:04.723Z,96622.58
2019-02-07T17:28:30.822Z,96615.97
2019-02-07T17:30:56.889Z,96622.45
2019-02-07T17:33:23.089Z,96625.52
2019-02-07T17:35:50.183Z,96618.07
2019-02-07T17:38:17.123Z,96622.98
2019-02-07T17:40:43.231Z,96614.43
2019-02-07T17:43:11.157Z,96626.52
2019-02-07T17:45:37.428Z,96613.38
2019-02-07T17:48:03.709Z,96615.16
2019-02-07T17:50:49.782Z,96618.59
2019-02-07T17:53:15.773Z,96625.03
2019-02-07T17:55:41.702Z,96631.36
2019-02-07T17:58:51.230Z,96622.29
2019-02-07T18:01:17.326Z,96627.14
2019-02-07T18:03:43.226Z,96616.72
2019-02-07T18:08:59.042Z,96623.55
2019-02-07T18:11:24.931Z,96627.11
2019-02-07T18:13:50.823Z,96631.33
2019-02-07T18:16:16.844Z,96630.30
2019-02-07T18:18:43.112Z,96626.42
2019-02-07T18:21:11.043Z,96631.81
2019-02-07T18:23:37.221Z,96594.36
2019-02-07T18:26:03.705Z,96641.91
2019-02-07T18:28:29.838Z,96640.85
2019-02-07T18:30:55.969Z,96648.53
2019-02-07T18:33:21.969Z,96638.98
2019-02-07T18:36:07.978Z,96641.45
2019-02-07T18:38:33.820Z,96654.67
2019-02-07T18:40:59.997Z,96649.22
2019-02-07T18:43:26.092Z,96646.39
2019-02-07T18:45:52.125Z,96649.73
2019-02-07T18:48:18.187Z,96634.64
2019-02-07T18:50:44.406Z,96636.51
2019-02-07T18:53:10.505Z,96642.77
2019-02-07T18:55:36.612Z,96643.37
2019-02-07T18:58:44.178Z,96654.25
2019-02-07T19:01:10.322Z,96657.08
2019-02-07T19:03:36.241Z,96670.03
2019-02-07T19:06:04.239Z,96671.03
2019-02-07T19:08:30.192Z,96667.95
2019-02-07T19:10:56.392Z,96671.48
2019-02-07T19:13:22.520Z,96668.69
2019-02-07T19:16:30.016Z,96667.63
2019-02-07T19:18:55.982Z,96664.59
2019-02-07T19:21:22.213Z,96670.82
2019-02-07T19:23:48.348Z,96682.23
2019-02-07T19:26:14.263Z,96689.59
2019-02-07T19:28:40.177Z,96678.69
2019-02-07T19:31:06.355Z,96683.68
2019-02-07T19:33:32.579Z,96688.89
2019-02-07T19:36:00.660Z,96679.77
2019-02-07T19:38:26.718Z,96690.70
2019-02-07T19:40:52.856Z,96692.99
2019-02-07T19:43:18.817Z,96690.40
2019-02-07T19:45:44.832Z,96700.83
2019-02-07T19:48:10.898Z,96708.27
2019-02-07T19:50:37.155Z,96705.17
2019-02-07T19:53:03.549Z,96717.58
2019-02-07T19:56:11.133Z,96717.38
2019-02-07T19:58:37.253Z,96722.53
2019-02-07T20:01:44.847Z,96725.84
2019-02-07T20:04:11.025Z,96730.45
2019-02-07T20:06:36.947Z,96726.27
2019-02-07T20:09:44.501Z,96728.86
2019-02-07T20:12:10.573Z,96732.50
2019-02-07T20:14:36.441Z,96737.92
2019-02-07T20:17:02.463Z,96742.87
2019-02-07T20:19:28.733Z,96736.90
2019-02-07T20:21:55.048Z,96736.39
2019-02-07T20:24:21.201Z,96738.23
2019-02-07T20:26:49.365Z,96730.70
2019-02-07T20:31:47.496Z,96741.91
2019-02-07T20:34:13.582Z,96747.03
2019-02-07T20:36:39.517Z,96744.44
2019-02-07T20:39:47.097Z,96748.08
2019-02-07T20:42:13.275Z,96745.19
2019-02-07T20:44:39.370Z,96743.34
2019-02-07T20:47:05.284Z,96742.12
2019-02-07T20:49:31.231Z,96747.42
2019-02-07T20:52:12.137Z,96752.39
2019-02-07T20:54:24.998Z,96744.28
2019-02-07T20:56:53.406Z,96748.29
2019-02-07T20:59:19.571Z,96763.23
2019-02-07T21:01:45.877Z,96752.66
2019-02-07T21:04:12.187Z,96755.95
2019-02-07T21:06:38.174Z,96756.61
2019-02-07T21:09:45.763Z,96755.28
2019-02-07T21:12:11.724Z,96764.52
2019-02-07T21:14:37.820Z,96770.96
2019-02-07T21:17:04.046Z,96770.42
2019-02-07T21:19:30.451Z,96763.13
2019-02-07T21:21:56.309Z,96767.80
2019-02-07T21:24:22.326Z,96776.90
2019-02-07T21:26:48.471Z,96773.53
2019-02-07T21:29:16.286Z,96776.36
2019-02-07T21:31:42.457Z,96778.41
2019-02-07T21:34:08.616Z,96778.02
2019-02-07T21:36:34.578Z,96775.63
2019-02-07T21:39:00.679Z,96788.56
2019-02-07T21:41:26.836Z,96782.05
2019-02-07T21:43:52.962Z,96793.45
2019-02-07T21:46:19.143Z,96787.24
2019-02-07T21:49:04.936Z,96791.91
2019-02-07T21:54:06.547Z,96788.88
2019-02-07T21:56:32.523Z,96789.14
2019-02-07T21:58:58.550Z,96785.41
2019-02-07T22:01:24.639Z,96796.53
2019-02-07T22:03:50.788Z,96795.98
2019-02-07T22:06:17.065Z,96806.33
2019-02-07T22:08:43.288Z,96811.06
2019-02-07T22:11:09.428Z,96811.06
2019-02-07T22:13:35.302Z,96808.34
2019-02-07T22:16:01.373Z,96805.75
2019-02-07T22:18:27.398Z,96804.42
2019-02-07T22:20:53.521Z,96798.48
2019-02-07T22:23:39.311Z,96809.64
2019-02-07T22:26:05.440Z,96804.70
2019-02-07T22:28:31.334Z,96807.89
2019-02-07T22:30:57.340Z,96814.62
2019-02-07T22:33:23.589Z,96810.73
2019-02-07T22:35:49.507Z,96817.61
2019-02-07T22:38:15.494Z,96814.50
2019-02-07T22:40:41.498Z,96814.47
2019-02-07T22:43:07.751Z,96812.63
2019-02-07T22:45:33.879Z,96819.17
2019-02-07T22:47:59.878Z,96817.88
2019-02-07T22:50:45.785Z,96810.79
2019-02-07T22:53:11.927Z,96810.79
2019-02-07T22:55:37.976Z,96823.67
2019-02-07T22:58:05.952Z,96826.56
2019-02-07T23:01:13.524Z,96825.63
2019-02-07T23:03:39.504Z,96825.63
2019-02-07T23:06:07.389Z,96824.23
2019-02-07T23:08:53.232Z,96828.73
2019-02-07T23:12:00.780Z,96828.73
2019-02-07T23:14:26.742Z,96825.23
2019-02-07T23:16:52.719Z,96831.75
2019-02-07T23:19:18.949Z,96827.11
2019-02-07T23:21:45.049Z,96825.53
2019-02-07T23:24:11.203Z,96836.19
2019-02-07T23:26:37.269Z,96829.97
2019-02-07T23:29:05.217Z,96835.67
2019-02-07T23:31:31.264Z,96838.02
2019-02-07T23:33:57.366Z,96847.10
2019-02-07T23:36:23.409Z,96847.95
2019-02-07T23:38:49.592Z,96853.64
2019-02-07T23:41:15.762Z,96852.89
2019-02-07T23:43:46.066Z,96851.33
2019-02-07T23:46:11.170Z,96849.48
2019-02-07T23:48:37.929Z,96844.84
2019-02-07T23:51:45.434Z,96846.31
2019-02-07T23:54:11.660Z,96835.66
2019-02-07T23:56:37.729Z,96841.28
2019-02-07T23:59:05.742Z,96845.17
